Time;durP1;ratioP1;P1;durP2;ratioP2;P2;SDS_P1;SDS_P2;PMS_P1;PMS_P2;Temp;Humidity;BMP_temperature;BMP_pressure;BME280_temperature;BME280_humidity;BME280_pressure;Samples;Min_cycle;Max_cycle;Signal;HPM_P1;HPM_P2
2021/04/10 00:00:37;;;;;;;2.37;1.87;;;9.90;95.80;;;;;;5070363;28;20935;-74
2021/04/10 00:03:05;;;;;;;2.57;2.37;;;9.90;96.80;;;;;;5074291;28;20512;-73
2021/04/10 00:05:32;;;;;;;1.67;1.40;;;10.00;96.20;;;;;;5071198;28;20931;-74
2021/04/10 00:07:59;;;;;;;1.40;1.17;;;10.20;95.10;;;;;;5074412;28;20456;-73
2021/04/10 00:10:27;;;;;;;1.63;1.60;;;10.30;93.80;;;;;;5073560;28;20838;-73
2021/04/10 00:12:54;;;;;;;2.40;1.67;;;10.20;93.80;;;;;;5072629;28;20459;-73
2021/04/10 00:15:23;;;;;;;1.30;1.10;;;10.10;93.90;;;;;;5074177;28;20468;-73
2021/04/10 00:17:50;;;;;;;2.33;1.70;;;10.00;95.50;;;;;;5071146;28;20502;-73
2021/04/10 00:20:19;;;;;;;4.03;1.53;;;9.90;96.00;;;;;;5072850;28;20988;-73
2021/04/10 00:22:46;;;;;;;2.00;1.73;;;9.70;96.20;;;;;;5071137;28;20805;-73
2021/04/10 00:25:15;;;;;;;1.60;1.60;;;9.60;96.50;;;;;;5073699;28;20465;-73
2021/04/10 00:27:42;;;;;;;5.33;1.57;;;9.50;96.80;;;;;;5070438;28;20488;-73
2021/04/10 00:30:11;;;;;;;2.07;1.80;;;9.40;96.90;;;;;;5073146;28;20819;-73
2021/04/10 00:32:39;;;;;;;2.93;2.10;;;9.40;97.60;;;;;;5069941;28;20480;-73
2021/04/10 00:35:06;;;;;;;1.30;1.30;;;9.40;98.00;;;;;;5073511;28;20948;-73
2021/04/10 00:37:35;;;;;;;1.30;1.23;;;9.60;97.40;;;;;;5069086;28;20572;-74
2021/04/10 00:40:02;;;;;;;2.93;1.40;;;9.60;96.90;;;;;;5073507;28;20455;-73
2021/04/10 00:42:28;;;;;;;1.60;1.40;;;9.80;96.30;;;;;;5070505;28;20452;-73
2021/04/10 00:44:55;;;;;;;3.73;1.40;;;9.70;96.70;;;;;;5073381;28;20453;-73
2021/04/10 00:47:22;;;;;;;2.17;1.50;;;9.60;97.40;;;;;;5070392;28;20513;-73
2021/04/10 00:49:49;;;;;;;1.20;1.13;;;9.60;97.10;;;;;;5073220;28;21055;-73
2021/04/10 00:52:19;;;;;;;1.90;1.37;;;9.50;97.40;;;;;;5069113;28;20462;-73
2021/04/10 00:54:49;;;;;;;1.73;1.50;;;9.40;98.00;;;;;;5073517;28;20534;-73
2021/04/10 00:57:16;;;;;;;3.30;2.27;;;9.20;98.00;;;;;;5070388;28;20484;-73
2021/04/10 00:59:43;;;;;;;6.93;2.47;;;9.20;98.00;;;;;;5073294;28;20462;-73
2021/04/10 01:02:10;;;;;;;2.70;2.10;;;9.20;98.00;;;;;;5070044;28;20515;-73
2021/04/10 01:04:37;;;;;;;3.40;1.77;;;9.10;98.00;;;;;;5073207;28;20460;-73
2021/04/10 01:07:05;;;;;;;2.90;2.33;;;9.20;98.00;;;;;;5070298;28;20462;-73
2021/04/10 01:09:32;;;;;;;1.93;1.60;;;9.30;98.00;;;;;;5072914;28;20793;-73
2021/04/10 01:12:21;;;;;;;1.80;1.43;;;9.40;98.00;;;;;;5069693;28;20449;-73
2021/04/10 01:14:58;;;;;;;1.20;1.10;;;9.40;98.00;;;;;;5062035;28;20953;-73
2021/04/10 01:17:29;;;;;;;1.20;0.97;;;9.50;97.00;;;;;;5068446;28;20480;-73
2021/04/10 01:20:14;;;;;;;1.80;1.37;;;9.50;97.40;;;;;;5072727;28;20513;-73
2021/04/10 01:23:14;;;;;;;1.47;1.27;;;9.50;98.00;;;;;;5068357;28;20518;-73
2021/04/10 01:25:47;;;;;;;1.40;1.37;;;9.60;98.00;;;;;;5069890;28;20488;-73
2021/04/10 01:28:22;;;;;;;1.80;1.40;;;9.60;98.00;;;;;;5071457;28;20821;-73
2021/04/10 01:34:14;;;;;;;1.20;1.00;;;9.50;98.00;;;;;;5072958;28;20825;-73
2021/04/10 01:36:44;;;;;;;1.70;1.50;;;9.40;98.00;;;;;;5069972;28;20519;-73
2021/04/10 01:39:13;;;;;;;2.07;1.37;;;9.40;98.00;;;;;;5072510;28;20614;-73
2021/04/10 01:41:44;;;;;;;4.13;2.17;;;9.50;98.00;;;;;;5069697;28;20457;-73
2021/04/10 01:44:13;;;;;;;1.30;1.13;;;9.40;98.00;;;;;;5072478;28;20471;-73
2021/04/10 01:46:40;;;;;;;2.80;1.43;;;9.40;98.00;;;;;;5069565;28;20637;-73
2021/04/10 01:49:07;;;;;;;1.63;1.33;;;9.50;98.00;;;;;;5072416;28;20457;-73
2021/04/10 01:51:36;;;;;;;1.67;1.60;;;9.40;98.00;;;;;;5069529;28;20493;-73
2021/04/10 01:54:03;;;;;;;1.20;1.00;;;9.50;98.00;;;;;;5070968;28;20517;-73
2021/04/10 01:56:32;;;;;;;2.33;2.13;;;9.60;98.00;;;;;;5069418;28;20460;-73
2021/04/10 01:58:59;;;;;;;1.50;1.43;;;9.50;98.00;;;;;;5072026;28;20881;-73
2021/04/10 02:01:28;;;;;;;1.40;1.23;;;9.40;98.00;;;;;;5069378;28;20452;-73
2021/04/10 02:03:56;;;;;;;1.73;1.60;;;9.40;98.00;;;;;;5070741;28;20452;-73
2021/04/10 02:06:24;;;;;;;1.87;1.40;;;9.40;98.00;;;;;;5069452;28;20963;-73
2021/04/10 02:08:52;;;;;;;3.17;1.97;;;9.30;98.00;;;;;;5070625;28;20468;-73
2021/04/10 02:11:23;;;;;;;1.20;1.17;;;9.30;98.00;;;;;;5069017;28;20757;-73
2021/04/10 02:13:50;;;;;;;1.30;1.20;;;9.30;98.00;;;;;;5071678;28;20456;-73
2021/04/10 02:16:17;;;;;;;1.40;1.27;;;9.30;98.00;;;;;;5068931;28;20522;-73
2021/04/10 02:18:44;;;;;;;1.80;1.23;;;9.40;98.00;;;;;;5071230;28;21006;-73
2021/04/10 02:21:12;;;;;;;1.30;1.10;;;9.30;98.00;;;;;;5068422;28;20453;-73
2021/04/10 02:23:39;;;;;;;1.20;1.10;;;9.30;97.40;;;;;;5071443;28;20463;-73
2021/04/10 02:26:14;;;;;;;1.30;1.20;;;9.40;97.40;;;;;;5069075;28;20449;-73
2021/04/10 02:28:40;;;;;;;1.93;1.43;;;9.40;98.00;;;;;;5071986;28;20806;-73
2021/04/10 02:31:12;;;;;;;1.20;1.00;;;9.30;97.80;;;;;;5069048;28;20514;-73
2021/04/10 02:33:42;;;;;;;1.20;1.10;;;9.30;97.90;;;;;;5071678;28;20460;-73
2021/04/10 02:36:13;;;;;;;1.20;0.97;;;9.30;97.20;;;;;;5068797;28;20505;-73
2021/04/10 02:38:43;;;;;;;1.30;1.20;;;9.30;97.10;;;;;;5069421;28;20484;-73
2021/04/10 02:41:14;;;;;;;1.40;1.20;;;9.20;96.50;;;;;;5068577;28;20457;-73
2021/04/10 02:43:44;;;;;;;1.20;1.10;;;9.30;96.00;;;;;;5071461;28;20464;-73
2021/04/10 02:46:13;;;;;;;1.40;1.40;;;9.30;96.50;;;;;;5067554;28;20460;-73
2021/04/10 02:48:50;;;;;;;1.20;1.00;;;9.40;95.40;;;;;;5071504;28;20452;-73
2021/04/10 02:51:18;;;;;;;2.03;1.43;;;9.40;94.70;;;;;;5068379;28;20507;-73
2021/04/10 02:53:48;;;;;;;1.30;1.30;;;9.50;95.60;;;;;;5071282;28;20452;-73
2021/04/10 02:56:16;;;;;;;1.20;0.90;;;9.50;95.70;;;;;;5068186;28;20832;-72
2021/04/10 02:58:47;;;;;;;1.40;1.10;;;9.60;95.20;;;;;;5071046;28;20990;-73
2021/04/10 03:01:16;;;;;;;1.20;0.90;;;9.60;94.10;;;;;;5068389;28;20955;-73
2021/04/10 03:03:43;;;;;;;1.30;1.03;;;9.70;91.20;;;;;;5071265;28;20976;-73
2021/04/10 03:06:10;;;;;;;2.13;1.23;;;9.80;93.10;;;;;;5068346;28;20450;-73
2021/04/10 03:08:37;;;;;;;1.20;1.00;;;9.90;92.40;;;;;;5071076;28;20451;-72
2021/04/10 03:11:04;;;;;;;1.20;1.10;;;10.00;90.90;;;;;;5068131;28;20452;-73
2021/04/10 03:13:33;;;;;;;1.20;1.00;;;10.10;90.90;;;;;;5070844;28;20458;-72
2021/04/10 03:16:00;;;;;;;2.03;1.10;;;10.20;88.20;;;;;;5068363;28;20508;-73
2021/04/10 03:18:29;;;;;;;1.20;1.00;;;10.50;86.60;;;;;;5071302;28;20488;-73
2021/04/10 03:20:55;;;;;;;1.20;1.00;;;10.60;86.20;;;;;;5068483;28;20880;-73
2021/04/10 03:23:22;;;;;;;1.70;1.20;;;10.70;87.00;;;;;;5071173;28;20492;-73
2021/04/10 03:25:50;;;;;;;3.23;1.27;;;10.80;87.70;;;;;;5068561;28;20782;-74
2021/04/10 03:28:16;;;;;;;1.40;1.20;;;10.80;87.20;;;;;;5070904;28;20458;-73
2021/04/10 03:30:43;;;;;;;1.50;1.20;;;10.80;85.80;;;;;;5071251;28;20459;-73
2021/04/10 03:33:10;;;;;;;1.30;1.20;;;10.90;85.90;;;;;;5070243;28;20467;-73
2021/04/10 03:35:37;;;;;;;1.20;1.07;;;11.00;86.80;;;;;;5075080;28;20458;-73
2021/04/10 03:38:04;;;;;;;1.20;1.10;;;11.00;85.90;;;;;;5072341;28;20487;-73
2021/04/10 03:40:30;;;;;;;1.20;1.03;;;11.10;85.20;;;;;;5073516;28;20950;-72
2021/04/10 03:42:58;;;;;;;2.47;1.30;;;11.20;85.30;;;;;;5072101;28;20474;-73
2021/04/10 03:45:25;;;;;;;1.30;1.10;;;11.30;85.10;;;;;;5074818;28;20957;-72
2021/04/10 03:47:52;;;;;;;1.30;1.10;;;11.40;84.80;;;;;;5072053;28;20456;-73
2021/04/10 03:50:21;;;;;;;1.60;1.10;;;11.40;85.50;;;;;;5074609;28;20464;-73
2021/04/10 03:52:48;;;;;;;1.20;1.00;;;11.40;85.70;;;;;;5071825;28;20449;-73
2021/04/10 03:55:15;;;;;;;1.20;1.00;;;11.40;87.10;;;;;;5074149;28;20842;-72
2021/04/10 03:57:41;;;;;;;1.30;1.10;;;11.40;88.40;;;;;;5071509;28;21159;-73
2021/04/10 04:00:10;;;;;;;1.20;1.07;;;11.50;84.50;;;;;;5074238;28;20464;-73
2021/04/10 04:02:37;;;;;;;1.60;1.33;;;11.60;87.30;;;;;;5071704;28;20460;-73
2021/04/10 04:05:07;;;;;;;1.37;1.10;;;11.50;85.00;;;;;;5073028;28;20456;-73
2021/04/10 04:07:33;;;;;;;1.87;1.77;;;11.50;86.00;;;;;;5071619;28;20456;-73
2021/04/10 04:10:00;;;;;;;1.20;1.00;;;11.60;85.80;;;;;;5074310;28;20525;-73
2021/04/10 04:12:27;;;;;;;1.33;1.30;;;11.70;84.20;;;;;;5071672;28;20834;-73
2021/04/10 04:14:54;;;;;;;1.20;1.00;;;11.70;84.40;;;;;;5074362;28;20819;-73
2021/04/10 04:17:21;;;;;;;1.30;1.17;;;11.70;85.30;;;;;;5071372;28;21166;-73
2021/04/10 04:19:48;;;;;;;5.53;1.30;;;11.70;86.50;;;;;;5074441;28;20510;-73
2021/04/10 04:22:14;;;;;;;1.50;1.30;;;11.70;89.70;;;;;;5071552;28;20467;-73
2021/04/10 04:24:41;;;;;;;1.20;1.00;;;11.50;91.40;;;;;;5074290;28;20460;-73
2021/04/10 04:27:08;;;;;;;1.20;1.00;;;11.50;93.50;;;;;;5071559;28;20449;-73
2021/04/10 04:29:34;;;;;;;1.20;0.90;;;11.40;96.10;;;;;;5072960;28;20460;-73
2021/04/10 04:32:01;;;;;;;1.20;1.00;;;11.30;96.90;;;;;;5070273;28;20471;-73
2021/04/10 04:34:28;;;;;;;1.20;1.00;;;11.20;94.20;;;;;;5074129;28;20457;-73
2021/04/10 04:36:55;;;;;;;2.27;1.53;;;11.10;97.50;;;;;;5071692;28;20960;-73
2021/04/10 04:39:22;;;;;;;1.50;1.20;;;11.00;98.00;;;;;;5073981;28;20917;-73
2021/04/10 04:41:48;;;;;;;1.20;1.00;;;11.00;98.00;;;;;;5071251;28;20460;-73
2021/04/10 04:44:15;;;;;;;1.20;1.07;;;10.90;98.00;;;;;;5073172;28;20460;-73
2021/04/10 04:46:41;;;;;;;1.20;0.90;;;10.90;95.80;;;;;;5071265;28;20464;-73
2021/04/10 04:49:08;;;;;;;1.40;1.17;;;10.80;98.00;;;;;;5073553;28;21082;-73
2021/04/10 04:51:35;;;;;;;1.20;1.10;;;10.90;98.00;;;;;;5071024;28;20457;-73
2021/04/10 04:54:02;;;;;;;1.20;0.90;;;10.90;97.70;;;;;;5073463;28;20449;-74
2021/04/10 04:56:29;;;;;;;1.20;1.00;;;10.80;97.90;;;;;;5053140;28;20478;-73
2021/04/10 04:58:55;;;;;;;1.20;1.10;;;10.80;98.00;;;;;;5073397;28;20482;-73
2021/04/10 05:01:22;;;;;;;1.20;1.10;;;10.70;98.00;;;;;;5069444;28;20460;-73
2021/04/10 05:03:49;;;;;;;1.20;0.93;;;10.60;98.00;;;;;;5072186;28;20462;-73
2021/04/10 05:06:15;;;;;;;1.20;1.00;;;10.50;98.00;;;;;;5069538;28;20464;-73
2021/04/10 05:08:42;;;;;;;2.50;1.43;;;10.40;98.00;;;;;;5073179;28;20455;-73
2021/04/10 05:11:09;;;;;;;1.20;1.03;;;10.50;98.00;;;;;;5070356;28;20510;-73
2021/04/10 05:13:35;;;;;;;1.20;1.00;;;10.70;93.70;;;;;;5073161;28;21067;-73
2021/04/10 05:16:02;;;;;;;1.20;1.10;;;10.70;97.90;;;;;;5070503;28;20452;-74
2021/04/10 05:18:29;;;;;;;1.20;1.00;;;10.60;98.00;;;;;;5073125;28;20479;-73
2021/04/10 05:20:57;;;;;;;1.20;1.00;;;10.60;98.00;;;;;;5072990;28;20463;-73
2021/04/10 05:23:24;;;;;;;1.20;1.00;;;10.60;98.00;;;;;;5071964;28;20645;-73
2021/04/10 05:25:52;;;;;;;1.20;0.90;;;10.60;98.00;;;;;;5073153;28;20465;-73
2021/04/10 05:28:20;;;;;;;1.20;1.00;;;10.60;98.00;;;;;;5070360;28;20504;-73
2021/04/10 05:30:47;;;;;;;1.30;1.00;;;10.60;97.40;;;;;;5073056;28;20852;-73
2021/04/10 05:33:14;;;;;;;1.20;1.00;;;10.80;94.10;;;;;;5070098;28;20470;-73
2021/04/10 05:35:42;;;;;;;2.57;1.20;;;10.80;94.90;;;;;;5071777;28;20516;-73
2021/04/10 05:38:08;;;;;;;1.20;1.00;;;10.90;93.70;;;;;;5069668;28;20554;-73
2021/04/10 05:40:35;;;;;;;1.20;1.10;;;10.90;95.60;;;;;;5072588;28;20502;-73
2021/04/10 05:43:03;;;;;;;1.20;1.00;;;10.90;98.00;;;;;;5069970;28;20468;-73
2021/04/10 05:45:29;;;;;;;1.20;1.00;;;10.80;98.00;;;;;;5072545;28;20870;-73
2021/04/10 05:47:56;;;;;;;1.20;0.90;;;10.70;98.00;;;;;;5069566;28;20489;-73
2021/04/10 05:50:23;;;;;;;1.20;1.00;;;10.70;98.00;;;;;;5072487;28;20935;-73
2021/04/10 05:52:50;;;;;;;1.20;0.97;;;10.70;98.00;;;;;;5069857;28;20483;-74
2021/04/10 05:55:17;;;;;;;1.20;0.90;;;10.60;98.00;;;;;;5071836;28;20492;-73
2021/04/10 05:57:43;;;;;;;1.30;1.07;;;10.50;98.00;;;;;;5068882;28;20574;-73
2021/04/10 06:00:12;;;;;;;1.30;1.10;;;10.40;98.00;;;;;;5072120;28;20523;-73
2021/04/10 06:02:39;;;;;;;1.70;1.00;;;10.20;98.00;;;;;;5069477;28;20461;-73
2021/04/10 06:05:07;;;;;;;1.20;1.00;;;10.20;98.00;;;;;;5072209;28;20511;-73
2021/04/10 06:07:33;;;;;;;1.27;1.07;;;10.20;98.00;;;;;;5069769;28;20472;-73
2021/04/10 06:10:00;;;;;;;1.20;1.00;;;10.20;98.00;;;;;;5072171;28;20446;-73
2021/04/10 06:12:26;;;;;;;1.20;1.00;;;10.10;98.00;;;;;;5069335;28;20467;-73
2021/04/10 06:14:53;;;;;;;1.20;1.00;;;10.10;98.00;;;;;;5071981;28;20486;-72
2021/04/10 06:17:20;;;;;;;1.20;1.00;;;10.10;98.00;;;;;;5068383;28;20474;-72
2021/04/10 06:19:47;;;;;;;1.50;1.20;;;10.10;98.00;;;;;;5071355;28;20955;-72
2021/04/10 06:22:14;;;;;;;1.20;1.07;;;10.10;98.00;;;;;;5067049;28;20480;-72
2021/04/10 06:24:42;;;;;;;1.63;1.20;;;10.10;98.00;;;;;;5070356;28;20454;-73
2021/04/10 06:27:10;;;;;;;1.20;1.00;;;10.10;98.00;;;;;;5069075;28;20457;-73
2021/04/10 06:29:37;;;;;;;1.20;1.00;;;10.10;98.00;;;;;;5071678;28;20477;-73
2021/04/10 06:32:04;;;;;;;1.20;0.90;;;10.10;98.00;;;;;;5068568;28;20453;-73
2021/04/10 06:34:31;;;;;;;1.20;1.00;;;10.10;98.00;;;;;;5071595;28;20534;-72
2021/04/10 06:36:58;;;;;;;1.60;1.30;;;10.10;98.00;;;;;;5068590;28;20940;-73
2021/04/10 06:39:25;;;;;;;1.20;1.00;;;10.20;98.00;;;;;;5071533;28;20490;-72
2021/04/10 06:42:04;;;;;;;1.77;1.20;;;10.30;98.00;;;;;;5068471;28;20456;-72
2021/04/10 06:44:32;;;;;;;1.20;1.00;;;10.30;98.00;;;;;;5071435;28;20985;-72
2021/04/10 06:47:02;;;;;;;1.30;1.10;;;10.30;98.00;;;;;;5067344;28;20941;-72
2021/04/10 06:49:31;;;;;;;1.33;1.10;;;10.30;98.00;;;;;;5071500;28;20453;-73
2021/04/10 06:51:58;;;;;;;1.20;1.00;;;10.30;98.00;;;;;;5068347;28;20460;-73
2021/04/10 06:54:31;;;;;;;1.20;1.03;;;10.30;98.00;;;;;;5071606;28;20983;-73
2021/04/10 06:57:03;;;;;;;1.53;1.40;;;10.40;98.00;;;;;;5068647;28;20541;-72
2021/04/10 06:59:40;;;;;;;1.20;0.90;;;10.40;98.00;;;;;;5071315;28;20488;-72
2021/04/10 07:02:10;;;;;;;3.93;1.20;;;10.40;98.00;;;;;;5067908;28;20488;-72
2021/04/10 07:04:40;;;;;;;1.20;1.00;;;10.50;98.00;;;;;;5071267;28;20470;-73
2021/04/10 07:07:07;;;;;;;1.20;1.00;;;10.40;98.00;;;;;;5067575;28;20457;-73
2021/04/10 07:12:18;;;;;;;1.20;1.00;;;10.30;98.00;;;;;;5066788;28;20573;-73
2021/04/10 07:14:46;;;;;;;1.20;1.00;;;10.20;98.00;;;;;;5071115;28;20459;-73
2021/04/10 07:17:13;;;;;;;1.20;0.90;;;10.20;98.00;;;;;;5067199;28;20471;-73
2021/04/10 07:19:41;;;;;;;1.20;1.00;;;10.30;98.00;;;;;;5069940;28;20547;-73
2021/04/10 07:22:09;;;;;;;1.30;1.10;;;10.30;98.00;;;;;;5067434;28;21018;-73
2021/04/10 07:24:42;;;;;;;1.20;0.90;;;10.40;98.00;;;;;;5070458;28;20472;-73
2021/04/10 07:27:11;;;;;;;1.50;1.20;;;10.40;98.00;;;;;;5067693;28;20465;-73
2021/04/10 07:29:39;;;;;;;1.20;1.00;;;10.40;98.00;;;;;;5070508;28;20460;-73
2021/04/10 07:32:32;;;;;;;1.30;1.00;;;10.40;98.00;;;;;;5067579;28;20456;-72
2021/04/10 07:35:00;;;;;;;1.47;1.20;;;10.40;98.00;;;;;;5069254;28;20457;-72
2021/04/10 07:37:45;;;;;;;1.20;1.10;;;10.40;98.00;;;;;;5067287;28;20818;-73
2021/04/10 07:40:25;;;;;;;1.30;1.10;;;10.30;98.00;;;;;;5070755;28;20457;-72
2021/04/10 07:42:52;;;;;;;1.30;1.10;;;10.40;98.00;;;;;;5067344;28;20460;-73
2021/04/10 07:45:32;;;;;;;1.30;1.30;;;10.50;98.00;;;;;;5070510;28;20450;-72
2021/04/10 07:48:03;;;;;;;1.60;1.20;;;10.40;98.00;;;;;;5067631;28;20803;-72
2021/04/10 07:50:33;;;;;;;1.50;1.20;;;10.40;98.00;;;;;;5070201;28;20457;-73
2021/04/10 07:53:19;;;;;;;1.30;1.17;;;10.50;98.00;;;;;;5067273;28;20457;-73
2021/04/10 07:55:46;;;;;;;1.20;1.00;;;10.40;98.00;;;;;;5070090;28;20492;-73
2021/04/10 07:58:31;;;;;;;1.20;1.10;;;10.40;98.00;;;;;;5067260;28;20538;-75
2021/04/10 08:01:00;;;;;;;1.20;1.07;;;10.40;98.00;;;;;;5070285;28;20450;-73
2021/04/10 08:03:32;;;;;;;1.20;1.10;;;10.40;98.00;;;;;;5066955;28;20459;-73
2021/04/10 08:06:17;;;;;;;1.43;1.10;;;10.50;98.00;;;;;;5070095;28;20464;-73
2021/04/10 08:08:50;;;;;;;5.00;1.17;;;10.50;98.00;;;;;;5070129;28;20452;-73
2021/04/10 08:11:18;;;;;;;1.20;1.00;;;10.40;98.00;;;;;;5068304;28;20464;-73
2021/04/10 08:13:54;;;;;;;1.20;0.90;;;10.40;98.00;;;;;;5069839;28;20458;-74
2021/04/10 08:16:23;;;;;;;1.20;1.10;;;10.30;98.00;;;;;;5067164;28;20449;-73
2021/04/10 08:18:52;;;;;;;1.20;1.00;;;10.40;98.00;;;;;;5069754;28;20535;-71
2021/04/10 08:21:22;;;;;;;1.60;1.20;;;10.40;98.00;;;;;;5071453;28;21025;-72
2021/04/10 08:23:49;;;;;;;1.20;1.00;;;10.50;98.00;;;;;;5073805;28;20520;-73
2021/04/10 08:26:16;;;;;;;1.20;1.07;;;10.70;98.00;;;;;;5072195;28;20455;-73
2021/04/10 08:28:43;;;;;;;1.93;1.10;;;10.80;98.00;;;;;;5072634;28;20543;-72
2021/04/10 08:31:10;;;;;;;1.20;1.00;;;10.70;98.00;;;;;;5074074;28;20456;-73
2021/04/10 08:33:37;;;;;;;1.20;1.00;;;10.70;98.00;;;;;;5071360;28;20463;-72
2021/04/10 08:36:05;;;;;;;1.20;1.00;;;10.80;98.00;;;;;;5072780;28;20451;-72
2021/04/10 08:38:34;;;;;;;1.20;1.00;;;10.80;98.00;;;;;;5070813;28;20628;-73
2021/04/10 08:41:04;;;;;;;1.50;1.10;;;10.70;98.00;;;;;;5072650;28;20458;-73
2021/04/10 08:43:32;;;;;;;1.20;1.00;;;10.80;98.00;;;;;;5070929;28;20459;-73
2021/04/10 08:46:00;;;;;;;2.03;1.03;;;10.90;98.00;;;;;;5072378;28;20480;-72
2021/04/10 08:48:28;;;;;;;1.30;1.10;;;10.90;98.00;;;;;;5070919;28;20452;-73
2021/04/10 08:50:58;;;;;;;1.20;1.00;;;11.00;98.00;;;;;;5073543;28;20934;-73
2021/04/10 08:53:26;;;;;;;1.20;1.10;;;11.00;98.00;;;;;;5070632;28;20462;-73
2021/04/10 08:55:56;;;;;;;1.20;0.90;;;11.00;98.00;;;;;;5073345;28;20470;-73
2021/04/10 08:58:24;;;;;;;1.20;1.00;;;11.10;98.00;;;;;;5070481;28;20481;-72
2021/04/10 09:00:54;;;;;;;1.20;1.00;;;11.20;98.00;;;;;;5073163;28;20524;-73
2021/04/10 09:03:21;;;;;;;1.30;1.07;;;11.20;98.00;;;;;;5070398;28;20458;-72
2021/04/10 09:05:49;;;;;;;1.87;1.47;;;11.20;98.00;;;;;;5073302;28;20869;-73
2021/04/10 09:08:27;;;;;;;1.40;1.27;;;11.20;98.00;;;;;;5070240;28;20547;-72
2021/04/10 09:10:59;;;;;;;1.93;1.10;;;11.20;98.00;;;;;;5072500;28;20452;-73
2021/04/10 09:13:44;;;;;;;1.40;1.10;;;11.20;98.00;;;;;;5068475;28;20460;-72
2021/04/10 09:16:33;;;;;;;1.20;1.00;;;11.20;98.00;;;;;;5071848;28;20463;-73
2021/04/10 09:19:02;;;;;;;1.20;1.00;;;11.20;98.00;;;;;;5073322;28;20483;-73
2021/04/10 09:21:40;;;;;;;1.37;1.10;;;11.20;98.00;;;;;;5070575;28;20838;-73
2021/04/10 09:24:30;;;;;;;1.40;1.10;;;11.30;98.00;;;;;;5073108;28;20493;-73
2021/04/10 09:27:05;;;;;;;1.20;1.00;;;11.50;98.00;;;;;;5070081;28;20488;-73
2021/04/10 09:29:42;;;;;;;1.20;1.00;;;11.60;98.00;;;;;;5072840;28;20625;-72
2021/04/10 09:32:09;;;;;;;1.20;1.00;;;11.60;98.00;;;;;;5070449;28;20455;-72
2021/04/10 09:34:53;;;;;;;1.20;0.97;;;11.70;98.00;;;;;;5072590;28;20463;-73
2021/04/10 09:37:48;;;;;;;1.20;1.00;;;11.80;98.00;;;;;;5070273;28;20812;-73
2021/04/10 09:40:20;;;;;;;1.60;1.30;;;11.90;98.00;;;;;;5071321;28;20455;-72
2021/04/10 09:43:06;;;;;;;1.20;1.00;;;11.90;98.00;;;;;;5068761;28;20541;-73
2021/04/10 09:45:34;;;;;;;2.03;1.40;;;11.80;98.00;;;;;;5072272;28;20536;-73
2021/04/10 09:48:36;;;;;;;1.20;1.00;;;11.80;98.00;;;;;;5069850;28;20451;-73
2021/04/10 09:51:07;;;;;;;1.20;1.10;;;11.80;98.00;;;;;;5072169;28;20456;-72
2021/04/10 09:53:35;;;;;;;1.63;1.10;;;12.00;98.00;;;;;;5069472;28;20457;-71
2021/04/10 09:56:05;;;;;;;1.20;1.00;;;12.10;98.00;;;;;;5072209;28;20471;-73
2021/04/10 09:58:37;;;;;;;1.20;1.00;;;12.00;98.00;;;;;;5069777;28;20485;-73
2021/04/10 10:01:07;;;;;;;1.40;1.23;;;11.90;98.00;;;;;;5071991;28;20455;-72
2021/04/10 10:03:34;;;;;;;1.20;1.00;;;11.90;98.00;;;;;;5069505;28;20547;-74
2021/04/10 10:06:01;;;;;;;1.20;1.00;;;12.10;98.00;;;;;;5072277;28;20521;-75
2021/04/10 10:08:32;;;;;;;1.40;1.20;;;12.10;98.00;;;;;;5069988;28;20449;-74
2021/04/10 10:11:00;;;;;;;1.20;1.00;;;12.10;98.00;;;;;;5072117;28;20789;-72
2021/04/10 10:13:32;;;;;;;1.20;1.00;;;12.10;98.00;;;;;;5069541;28;20463;-74
2021/04/10 10:16:00;;;;;;;1.30;1.23;;;12.10;98.00;;;;;;5072336;28;20453;-73
2021/04/10 10:18:31;;;;;;;1.20;1.00;;;12.20;98.00;;;;;;5069533;28;20486;-74
2021/04/10 10:21:00;;;;;;;1.20;1.00;;;12.10;98.00;;;;;;5071999;28;20511;-74
2021/04/10 10:23:27;;;;;;;1.20;1.00;;;12.10;98.00;;;;;;5069829;28;20549;-73
2021/04/10 10:25:54;;;;;;;1.63;1.20;;;12.20;98.00;;;;;;5071866;28;21541;-74
2021/04/10 10:28:22;;;;;;;2.27;1.43;;;12.20;98.00;;;;;;5069486;28;20520;-74
2021/04/10 10:30:48;;;;;;;1.20;1.00;;;12.20;98.00;;;;;;5068997;28;20469;-71
2021/04/10 10:33:16;;;;;;;1.30;1.17;;;12.20;98.00;;;;;;5068409;28;20819;-73
2021/04/10 10:35:52;;;;;;;1.20;1.03;;;12.10;98.00;;;;;;5071105;28;20460;-72
2021/04/10 10:38:19;;;;;;;1.30;1.00;;;12.20;98.00;;;;;;5068813;28;20509;-72
2021/04/10 10:40:50;;;;;;;1.40;1.20;;;12.20;98.00;;;;;;5071124;28;20813;-72
2021/04/10 10:43:17;;;;;;;1.20;1.00;;;12.20;98.00;;;;;;5066233;28;20800;-71
2021/04/10 10:45:47;;;;;;;1.20;1.00;;;12.30;98.00;;;;;;5070915;28;20460;-71
2021/04/10 10:48:19;;;;;;;1.67;1.30;;;12.30;98.00;;;;;;5068461;28;21102;-73
2021/04/10 10:50:46;;;;;;;1.20;1.10;;;12.30;98.00;;;;;;5071104;28;20799;-72
2021/04/10 10:53:16;;;;;;;1.30;1.20;;;12.40;98.00;;;;;;5068130;28;20456;-72
2021/04/10 10:56:01;;;;;;;1.70;1.33;;;12.30;98.00;;;;;;5070736;28;20479;-72
2021/04/10 10:58:35;;;;;;;1.30;1.00;;;12.40;98.00;;;;;;5068427;28;20480;-71
2021/04/10 11:01:11;;;;;;;1.20;1.10;;;12.40;98.00;;;;;;5071057;28;20462;-72
2021/04/10 11:03:42;;;;;;;1.30;1.00;;;12.50;98.00;;;;;;5067844;28;20553;-72
2021/04/10 11:06:10;;;;;;;1.20;1.00;;;12.60;98.00;;;;;;5070940;28;20458;-72
2021/04/10 11:08:37;;;;;;;1.53;1.47;;;12.60;97.70;;;;;;5068087;28;20453;-72
2021/04/10 11:11:05;;;;;;;1.37;1.23;;;12.60;97.20;;;;;;5069672;28;20456;-74
2021/04/10 11:13:33;;;;;;;1.20;1.00;;;12.70;98.00;;;;;;5066725;28;20468;-74
2021/04/10 11:16:00;;;;;;;1.20;1.10;;;12.70;97.40;;;;;;5070948;28;20525;-73
2021/04/10 11:18:29;;;;;;;1.20;1.00;;;12.70;96.40;;;;;;5066919;28;20994;-72
2021/04/10 11:21:21;;;;;;;1.63;1.10;;;12.80;96.90;;;;;;5070618;28;20493;-73
2021/04/10 11:24:03;;;;;;;1.40;1.10;;;12.80;98.00;;;;;;5068077;28;20856;-72
2021/04/10 11:26:35;;;;;;;1.20;1.00;;;12.90;97.40;;;;;;5069536;28;20948;-72
2021/04/10 11:29:28;;;;;;;1.30;1.20;;;13.00;95.30;;;;;;5069986;28;20861;-72
2021/04/10 11:32:14;;;;;;;1.20;1.00;;;13.10;94.90;;;;;;5067719;28;21036;-72
2021/04/10 11:34:51;;;;;;;1.47;1.10;;;13.20;96.00;;;;;;5070405;28;20456;-72
2021/04/10 11:37:21;;;;;;;1.30;1.20;;;13.50;96.20;;;;;;5067582;28;20776;-72
2021/04/10 11:39:55;;;;;;;1.20;1.00;;;13.70;96.40;;;;;;5070346;28;20537;-71
2021/04/10 11:42:27;;;;;;;1.30;1.30;;;14.00;94.50;;;;;;5068149;28;20490;-72
2021/04/10 11:44:55;;;;;;;1.20;1.10;;;14.30;93.50;;;;;;5070376;28;20459;-69
2021/04/10 11:47:23;;;;;;;1.20;1.10;;;14.50;93.90;;;;;;5067314;28;20469;-73
2021/04/10 11:49:49;;;;;;;1.83;1.40;;;14.90;92.20;;;;;;5070150;28;20501;-72
2021/04/10 11:52:17;;;;;;;1.20;1.10;;;15.20;89.50;;;;;;5067653;28;20460;-72
2021/04/10 11:54:45;;;;;;;1.20;1.10;;;15.20;89.20;;;;;;5071670;28;20450;-72
2021/04/10 11:57:28;;;;;;;1.30;1.10;;;15.30;91.30;;;;;;5071295;28;20512;-72
2021/04/10 12:00:22;;;;;;;1.20;1.00;;;15.20;88.80;;;;;;5074022;28;20522;-72
2021/04/10 12:02:49;;;;;;;1.40;1.30;;;14.90;87.40;;;;;;5070754;28;20460;-72
2021/04/10 12:05:40;;;;;;;1.20;1.20;;;14.70;86.70;;;;;;5073950;28;20508;-72
2021/04/10 12:08:12;;;;;;;1.20;1.10;;;14.70;87.20;;;;;;5061848;28;20490;-72
2021/04/10 12:10:43;;;;;;;1.20;1.00;;;14.50;87.60;;;;;;5074082;28;20824;-72
2021/04/10 12:13:11;;;;;;;1.60;1.23;;;14.50;88.70;;;;;;5070701;28;20470;-72
2021/04/10 12:15:41;;;;;;;1.20;1.10;;;14.50;87.90;;;;;;5072985;28;20494;-71
2021/04/10 12:18:09;;;;;;;1.20;1.10;;;14.40;90.20;;;;;;5070351;28;20484;-71
2021/04/10 12:20:38;;;;;;;1.20;1.00;;;14.50;88.60;;;;;;5073133;28;20516;-71
2021/04/10 12:23:06;;;;;;;1.20;1.00;;;14.50;88.00;;;;;;5070495;28;20517;-72
2021/04/10 12:25:33;;;;;;;1.20;0.90;;;14.60;88.60;;;;;;5072166;28;20448;-72
2021/04/10 12:28:01;;;;;;;1.50;1.10;;;14.80;88.90;;;;;;5070715;28;20467;-73
2021/04/10 12:30:28;;;;;;;1.20;1.00;;;14.90;86.30;;;;;;5073507;28;20460;-72
2021/04/10 12:32:55;;;;;;;1.50;1.20;;;15.00;85.20;;;;;;5070313;28;20468;-72
2021/04/10 12:35:22;;;;;;;1.50;1.23;;;15.10;86.50;;;;;;5073581;28;20464;-72
2021/04/10 12:37:49;;;;;;;1.50;1.20;;;15.10;85.20;;;;;;5069936;28;20457;-77
2021/04/10 12:40:16;;;;;;;1.30;1.10;;;15.20;83.30;;;;;;5073216;28;20475;-73
2021/04/10 12:42:42;;;;;;;1.50;1.20;;;15.30;84.90;;;;;;5068477;28;20494;-76
2021/04/10 12:45:11;;;;;;;1.20;1.00;;;15.30;83.00;;;;;;5072948;28;20494;-72
2021/04/10 12:47:38;;;;;;;1.30;1.10;;;15.60;83.40;;;;;;5070337;28;20533;-73
2021/04/10 12:50:06;;;;;;;1.20;1.00;;;16.10;82.80;;;;;;5073587;28;20455;-72
2021/04/10 12:52:33;;;;;;;1.20;1.10;;;16.70;83.10;;;;;;5071209;28;20456;-72
2021/04/10 12:55:00;;;;;;;1.30;1.03;;;17.30;78.40;;;;;;5054866;28;20473;-72
2021/04/10 12:57:31;;;;;;;1.60;1.17;;;17.80;79.80;;;;;;5070413;28;20464;-73
2021/04/10 12:59:58;;;;;;;1.20;1.00;;;17.90;78.60;;;;;;5072208;28;20476;-73
2021/04/10 13:02:25;;;;;;;1.30;1.13;;;18.20;76.00;;;;;;5070604;28;20453;-73
2021/04/10 13:04:52;;;;;;;1.67;1.30;;;18.20;75.70;;;;;;5072695;28;20468;-73
2021/04/10 13:07:19;;;;;;;1.30;1.20;;;18.30;77.70;;;;;;5069810;28;20567;-73